createdAt,value
2023-05-06T00:00:20.537Z,99238.31
2023-05-06T00:02:46.909Z,99240.13
2023-05-06T00:05:13.390Z,99237.72
2023-05-06T00:07:39.878Z,99234.44
2023-05-06T00:10:06.515Z,99234.44
2023-05-06T00:12:32.861Z,99240.59
2023-05-06T00:14:59.346Z,99231.09
2023-05-06T00:17:25.792Z,99233.88
2023-05-06T00:19:52.323Z,99226.28
2023-05-06T00:22:18.686Z,99226.41
2023-05-06T00:24:44.999Z,99231.47
2023-05-06T00:27:11.399Z,99230.38
2023-05-06T00:29:37.819Z,99226.16
2023-05-06T00:32:04.590Z,99226.28
2023-05-06T00:34:30.998Z,99229.88
2023-05-06T00:36:57.376Z,99220.53
2023-05-06T00:39:25.101Z,99221.47
2023-05-06T00:41:51.614Z,99222.44
2023-05-06T00:44:18.033Z,99233.88
2023-05-06T00:46:44.521Z,99224.25
2023-05-06T00:49:11.758Z,99221.94
2023-05-06T00:51:38.394Z,99232.91
2023-05-06T00:54:05.208Z,99234.81
2023-05-06T00:56:31.726Z,99231.47
2023-05-06T00:58:58.631Z,99231.69
2023-05-06T01:01:25.526Z,99227.84
2023-05-06T01:03:52.060Z,99228.28
2023-05-06T01:06:45.136Z,99238.63
2023-05-06T01:09:21.146Z,99237.81
2023-05-06T01:12:09.425Z,99243.19
2023-05-06T01:14:49.864Z,99244.25
2023-05-06T01:17:18.769Z,99236.94
2023-05-06T01:19:52.103Z,99238.41
2023-05-06T01:22:19.361Z,99245.38
2023-05-06T01:24:46.699Z,99243.81
2023-05-06T01:27:14.380Z,99238.50
2023-05-06T01:29:43.078Z,99229.63
2023-05-06T01:32:41.940Z,99224.13
2023-05-06T01:35:35.610Z,99231.69
2023-05-06T01:38:16.049Z,99230.72
2023-05-06T01:40:44.777Z,99233.53
2023-05-06T01:43:13.465Z,99235.91
2023-05-06T01:45:41.401Z,99221.47
2023-05-06T01:48:09.608Z,99226.84
2023-05-06T01:50:36.876Z,99222.16
2023-05-06T01:53:03.449Z,99232.13
2023-05-06T01:55:29.855Z,99237.50
2023-05-06T01:57:56.602Z,99234.25
2023-05-06T02:00:24.123Z,99241.44
2023-05-06T02:02:50.993Z,99244.31
2023-05-06T02:05:17.583Z,99239.25
2023-05-06T02:07:44.009Z,99237.56
2023-05-06T02:10:10.640Z,99241.50
2023-05-06T02:12:37.026Z,99242.84
2023-05-06T02:15:03.655Z,99246.34
2023-05-06T02:17:29.970Z,99246.22
2023-05-06T02:19:56.411Z,99238.75
2023-05-06T02:22:22.877Z,99247.41
2023-05-06T02:24:49.175Z,99250.88
2023-05-06T02:27:15.457Z,99246.78
2023-05-06T02:29:41.859Z,99259.25
2023-05-06T02:32:08.381Z,99253.81
2023-05-06T02:34:34.674Z,99266.06
2023-05-06T02:37:01.351Z,99249.81
2023-05-06T02:39:27.711Z,99254.38
2023-05-06T02:41:54.386Z,99247.50
2023-05-06T02:44:20.712Z,99250.13
2023-05-06T02:46:47.030Z,99249.53
2023-05-06T02:49:13.457Z,99245.31
2023-05-06T02:51:39.988Z,99245.53
2023-05-06T02:54:06.688Z,99255.88
2023-05-06T02:56:33.017Z,99248.50
2023-05-06T02:58:59.442Z,99255.81
2023-05-06T03:01:25.824Z,99249.06
2023-05-06T03:03:52.332Z,99256.84
2023-05-06T03:06:18.900Z,99243.78
2023-05-06T03:08:45.302Z,99254.75
2023-05-06T03:11:11.609Z,99257.81
2023-05-06T03:13:38.186Z,99262.03
2023-05-06T03:16:04.817Z,99267.94
2023-05-06T03:18:31.138Z,99270.88
2023-05-06T03:20:57.457Z,99255.97
2023-05-06T03:23:23.863Z,99256.94
2023-05-06T03:25:50.445Z,99257.56
2023-05-06T03:28:16.851Z,99263.56
2023-05-06T03:30:43.324Z,99270.81
2023-05-06T03:33:09.629Z,99268.16
2023-05-06T03:35:36.021Z,99260.34
2023-05-06T03:38:02.566Z,99261.13
2023-05-06T03:40:29.097Z,99266.88
2023-05-06T03:42:55.404Z,99266.06
2023-05-06T03:45:21.706Z,99267.72
2023-05-06T03:47:48.482Z,99268.34
2023-05-06T03:50:14.981Z,99269.31
2023-05-06T03:52:41.725Z,99271.59
2023-05-06T03:55:08.656Z,99261.38
2023-05-06T03:57:35.244Z,99266.06
2023-05-06T04:00:01.855Z,99274.44
2023-05-06T04:02:28.285Z,99281.38
2023-05-06T04:04:54.809Z,99277.91
2023-05-06T04:07:21.147Z,99288.81
2023-05-06T04:09:47.871Z,99274.81
2023-05-06T04:12:14.224Z,99284.53
2023-05-06T04:14:40.602Z,99290.66
2023-05-06T04:17:06.921Z,99283.91
2023-05-06T04:19:33.323Z,99295.09
2023-05-06T04:21:59.615Z,99304.31
2023-05-06T04:24:26.044Z,99302.94
2023-05-06T04:26:52.420Z,99310.75
2023-05-06T04:29:18.951Z,99324.16
2023-05-06T04:31:45.392Z,99321.53
2023-05-06T04:34:11.708Z,99327.03
2023-05-06T04:36:40.612Z,99331.16
2023-05-06T04:39:07.143Z,99319.94
2023-05-06T04:41:33.658Z,99330.38
2023-05-06T04:44:00.169Z,99324.91
2023-05-06T04:46:26.590Z,99333.78
2023-05-06T04:48:52.988Z,99322.91
2023-05-06T04:51:19.353Z,99331.38
2023-05-06T04:53:45.926Z,99346.09
2023-05-06T04:56:12.644Z,99332.41
2023-05-06T04:58:39.470Z,99341.94
2023-05-06T05:01:09.272Z,99352.50
2023-05-06T05:03:36.046Z,99346.56
2023-05-06T05:06:02.780Z,99332.34
2023-05-06T05:08:29.102Z,99349.34
2023-05-06T05:10:55.564Z,99349.47
2023-05-06T05:13:21.915Z,99357.38
2023-05-06T05:15:48.738Z,99359.91
2023-05-06T05:18:15.044Z,99346.72
2023-05-06T05:20:41.428Z,99359.69
2023-05-06T05:23:07.756Z,99347.56
2023-05-06T05:25:34.297Z,99362.22
2023-05-06T05:28:00.666Z,99362.97
2023-05-06T05:30:27.115Z,99357.47
2023-05-06T05:32:53.641Z,99364.28
2023-05-06T05:35:20.108Z,99353.50
2023-05-06T05:37:46.512Z,99364.47
2023-05-06T05:40:13.313Z,99360.22
2023-05-06T05:42:40.207Z,99367.81
2023-05-06T05:45:07.686Z,99352.34
2023-05-06T05:47:34.545Z,99360.78
2023-05-06T05:50:00.906Z,99356.03
2023-05-06T05:52:27.470Z,99357.09
2023-05-06T05:54:53.910Z,99363.63
2023-05-06T05:57:20.283Z,99360.09
2023-05-06T05:59:46.685Z,99368.41
2023-05-06T06:02:13.070Z,99361.91
2023-05-06T06:04:41.241Z,99369.72
2023-05-06T06:07:07.713Z,99367.97
2023-05-06T06:09:34.342Z,99375.66
2023-05-06T06:12:00.820Z,99360.84
2023-05-06T06:14:27.326Z,99367.38
2023-05-06T06:16:53.824Z,99363.09
2023-05-06T06:19:20.585Z,99371.38
2023-05-06T06:21:46.889Z,99368.91
2023-05-06T06:24:13.320Z,99375.59
2023-05-06T06:26:39.727Z,99364.50
2023-05-06T06:29:06.096Z,99365.44
2023-05-06T06:31:32.683Z,99367.19
2023-05-06T06:33:59.045Z,99364.66
2023-05-06T06:36:25.580Z,99377.84
2023-05-06T06:38:52.233Z,99382.59
2023-05-06T06:41:18.641Z,99367.09
2023-05-06T06:43:44.934Z,99374.09
2023-05-06T06:46:11.359Z,99360.41
2023-05-06T06:48:37.787Z,99379.28
2023-05-06T06:51:04.457Z,99361.69
2023-05-06T06:53:30.992Z,99385.50
2023-05-06T06:55:57.303Z,99374.06
2023-05-06T06:58:23.696Z,99365.06
2023-05-06T07:00:50.006Z,99373.56
2023-05-06T07:03:16.345Z,99377.44
2023-05-06T07:05:42.772Z,99368.41
2023-05-06T07:08:09.182Z,99376.22
2023-05-06T07:10:35.520Z,99368.47
2023-05-06T07:13:02.121Z,99370.72
2023-05-06T07:15:28.730Z,99381.16
2023-05-06T07:17:55.512Z,99380.66
2023-05-06T07:20:21.931Z,99389.50
2023-05-06T07:22:48.417Z,99389.72
2023-05-06T07:25:15.005Z,99394.41
2023-05-06T07:27:41.324Z,99390.84
2023-05-06T07:30:08.290Z,99400.94
2023-05-06T07:32:34.650Z,99400.94
2023-05-06T07:35:01.437Z,99402.94
2023-05-06T07:37:28.160Z,99407.78
2023-05-06T07:39:54.554Z,99416.56
2023-05-06T07:42:20.967Z,99409.47
2023-05-06T07:44:47.312Z,99413.59
2023-05-06T07:47:25.920Z,99409.50
2023-05-06T07:49:52.428Z,99415.22
2023-05-06T07:52:18.740Z,99405.81
2023-05-06T07:54:45.181Z,99405.22
2023-05-06T07:57:11.483Z,99400.63
2023-05-06T07:59:38.293Z,99405.41
2023-05-06T08:02:04.661Z,99400.91
2023-05-06T08:04:31.163Z,99404.16
2023-05-06T08:06:57.754Z,99405.63
2023-05-06T08:09:25.684Z,99406.81
2023-05-06T08:11:53.446Z,99410.41
2023-05-06T08:14:19.851Z,99393.94
2023-05-06T08:16:46.802Z,99400.47
2023-05-06T08:19:13.140Z,99404.41
2023-05-06T08:21:39.478Z,99403.09
2023-05-06T08:24:06.178Z,99391.88
2023-05-06T08:26:32.636Z,99398.78
2023-05-06T08:28:59.054Z,99403.13
2023-05-06T08:31:25.563Z,99412.44
2023-05-06T08:33:54.344Z,99426.84
2023-05-06T08:36:21.187Z,99414.38
2023-05-06T08:38:47.613Z,99418.13
2023-05-06T08:41:17.049Z,99415.63
2023-05-06T08:43:45.604Z,99415.91
2023-05-06T08:46:12.012Z,99410.13
2023-05-06T08:48:39.305Z,99404.22
2023-05-06T08:51:05.662Z,99413.59
2023-05-06T08:53:33.681Z,99415.59
2023-05-06T08:56:06.550Z,99418.13
2023-05-06T08:58:34.721Z,99408.59
2023-05-06T09:01:03.161Z,99409.97
2023-05-06T09:03:29.815Z,99405.56
2023-05-06T09:05:57.247Z,99412.06
2023-05-06T09:08:23.816Z,99404.44
2023-05-06T09:10:50.818Z,99386.69
2023-05-06T09:13:18.777Z,99407.66
2023-05-06T09:15:47.533Z,99398.28
2023-05-06T09:18:14.714Z,99393.28
2023-05-06T09:20:44.981Z,99394.75
2023-05-06T09:23:13.965Z,99396.22
2023-05-06T09:25:41.438Z,99384.16
2023-05-06T09:28:10.485Z,99394.50
2023-05-06T09:30:41.179Z,99402.06
2023-05-06T09:33:07.785Z,99396.75
2023-05-06T09:35:42.786Z,99394.78
2023-05-06T09:38:10.399Z,99396.28
2023-05-06T09:40:38.125Z,99394.63
2023-05-06T09:43:05.978Z,99391.25
2023-05-06T09:45:32.602Z,99389.06
2023-05-06T09:47:59.179Z,99378.88
2023-05-06T09:50:25.637Z,99381.13
2023-05-06T09:52:52.249Z,99393.69
2023-05-06T09:55:22.076Z,99399.50
2023-05-06T09:57:50.162Z,99397.78
2023-05-06T10:00:17.352Z,99399.09
2023-05-06T10:02:45.118Z,99387.91
2023-05-06T10:05:12.881Z,99392.28
2023-05-06T10:07:40.785Z,99392.38
2023-05-06T10:10:09.555Z,99376.25
2023-05-06T10:12:38.007Z,99379.97
2023-05-06T10:15:05.442Z,99386.63
2023-05-06T10:17:35.270Z,99368.38
2023-05-06T10:20:02.430Z,99382.09
2023-05-06T10:22:40.898Z,99383.28
2023-05-06T10:25:26.912Z,99382.50
2023-05-06T10:27:53.242Z,99383.47
2023-05-06T10:30:20.138Z,99374.03
2023-05-06T10:32:46.569Z,99375.84
2023-05-06T10:35:22.589Z,99383.38
2023-05-06T10:37:51.285Z,99380.25
2023-05-06T10:40:19.246Z,99378.72
2023-05-06T10:42:45.555Z,99366.50
2023-05-06T10:45:12.152Z,99376.19
2023-05-06T10:47:56.921Z,99374.38
2023-05-06T10:50:24.745Z,99365.47
2023-05-06T10:52:55.921Z,99374.59
2023-05-06T10:55:36.735Z,99360.25
2023-05-06T10:58:21.162Z,99369.28
2023-05-06T11:00:54.451Z,99370.00
2023-05-06T11:03:23.847Z,99349.97
2023-05-06T11:05:51.543Z,99363.84
2023-05-06T11:08:22.724Z,99362.59
2023-05-06T11:10:49.432Z,99363.84
2023-05-06T11:13:25.898Z,99357.41
2023-05-06T11:15:53.656Z,99365.06
2023-05-06T11:18:26.103Z,99358.97
2023-05-06T11:21:02.328Z,99365.19
2023-05-06T11:23:47.071Z,99355.91
2023-05-06T11:26:14.078Z,99346.19
2023-05-06T11:28:43.486Z,99366.00
2023-05-06T11:31:10.338Z,99349.63
2023-05-06T11:33:37.496Z,99361.78
2023-05-06T11:36:04.885Z,99351.06
2023-05-06T11:38:45.669Z,99347.06
2023-05-06T11:41:12.937Z,99349.13
2023-05-06T11:43:39.392Z,99342.25
2023-05-06T11:46:05.953Z,99349.13
2023-05-06T11:48:32.288Z,99347.06
2023-05-06T11:50:58.738Z,99358.00
2023-05-06T11:53:25.188Z,99349.56
2023-05-06T11:55:53.462Z,99345.50
2023-05-06T11:58:26.545Z,99346.59
2023-05-06T12:00:54.927Z,99337.56
2023-05-06T12:03:22.301Z,99337.25
2023-05-06T12:05:50.034Z,99358.50
2023-05-06T12:08:26.640Z,99345.50
2023-05-06T12:10:56.667Z,99352.88
2023-05-06T12:13:23.412Z,99336.28
2023-05-06T12:15:50.459Z,99330.97
2023-05-06T12:18:17.382Z,99344.56
2023-05-06T12:20:44.261Z,99346.94
2023-05-06T12:23:12.957Z,99342.94
2023-05-06T12:25:40.793Z,99343.91
2023-05-06T12:28:21.022Z,99342.41
2023-05-06T12:30:47.743Z,99334.38
2023-05-06T12:33:14.141Z,99340.41
2023-05-06T12:38:18.065Z,99342.91
2023-05-06T12:40:52.184Z,99343.38
2023-05-06T12:43:18.596Z,99337.34
2023-05-06T12:46:03.491Z,99334.28
2023-05-06T12:48:30.016Z,99324.66
2023-05-06T12:50:56.463Z,99328.84
2023-05-06T12:53:41.075Z,99322.84
2023-05-06T12:56:07.674Z,99331.13
2023-05-06T12:58:34.095Z,99333.19
2023-05-06T13:01:00.433Z,99329.56
2023-05-06T13:03:27.054Z,99332.06
2023-05-06T13:05:54.086Z,99329.88
2023-05-06T13:08:20.552Z,99333.56
2023-05-06T13:10:47.022Z,99329.69
2023-05-06T13:13:13.472Z,99341.53
2023-05-06T13:15:39.944Z,99329.16
2023-05-06T13:18:06.436Z,99337.34
2023-05-06T13:20:32.833Z,99340.47
2023-05-06T13:22:59.232Z,99341.47
2023-05-06T13:25:25.534Z,99337.06
2023-05-06T13:27:53.105Z,99332.56
2023-05-06T13:30:19.542Z,99341.41
2023-05-06T13:32:46.713Z,99325.84
2023-05-06T13:35:13.417Z,99333.22
2023-05-06T13:37:39.886Z,99328.75
2023-05-06T13:40:07.112Z,99327.38
2023-05-06T13:42:33.510Z,99323.88
2023-05-06T13:44:59.799Z,99327.53
2023-05-06T13:47:26.241Z,99321.38
2023-05-06T13:49:52.675Z,99299.44
2023-05-06T13:52:19.051Z,99308.84
2023-05-06T13:54:45.484Z,99315.56
2023-05-06T13:57:11.792Z,99311.56
2023-05-06T13:59:38.221Z,99312.22
2023-05-06T14:02:08.022Z,99314.63
2023-05-06T14:04:35.506Z,99317.31
2023-05-06T14:07:02.026Z,99304.09
2023-05-06T14:09:28.390Z,99309.97
2023-05-06T14:11:54.917Z,99299.97
2023-05-06T14:14:21.498Z,99299.97
2023-05-06T14:16:47.940Z,99291.75
2023-05-06T14:19:14.566Z,99303.28
2023-05-06T14:21:41.020Z,99294.91
2023-05-06T14:24:08.037Z,99289.91
2023-05-06T14:26:34.778Z,99289.38
2023-05-06T14:29:01.136Z,99283.88
2023-05-06T14:31:27.509Z,99301.72
2023-05-06T14:33:53.893Z,99284.66
2023-05-06T14:36:20.311Z,99287.00
2023-05-06T14:38:46.665Z,99256.19
2023-05-06T14:41:13.342Z,99266.22
2023-05-06T14:43:39.693Z,99279.94
2023-05-06T14:46:06.158Z,99282.94
2023-05-06T14:48:32.538Z,99273.75
2023-05-06T14:50:59.482Z,99283.63
2023-05-06T14:53:25.873Z,99291.34
2023-05-06T14:55:52.287Z,99274.28
2023-05-06T14:58:18.719Z,99282.47
2023-05-06T15:00:45.216Z,99264.63
2023-05-06T15:03:11.896Z,99271.50
2023-05-06T15:05:38.333Z,99273.16
2023-05-06T15:08:04.694Z,99281.53
2023-05-06T15:10:31.122Z,99272.03
2023-05-06T15:12:57.500Z,99269.13
2023-05-06T15:15:24.031Z,99273.50
2023-05-06T15:17:50.415Z,99260.13
2023-05-06T15:20:16.741Z,99262.63
2023-05-06T15:22:43.255Z,99274.16
2023-05-06T15:25:16.603Z,99263.81
2023-05-06T15:27:49.055Z,99263.66
2023-05-06T15:30:15.560Z,99266.81
2023-05-06T15:32:42.053Z,99254.19
2023-05-06T15:35:08.875Z,99261.16
2023-05-06T15:37:36.138Z,99258.91
2023-05-06T15:40:02.491Z,99263.28
2023-05-06T15:42:29.570Z,99260.41
2023-05-06T15:44:55.877Z,99253.66
2023-05-06T15:47:22.202Z,99260.63
2023-05-06T15:49:54.350Z,99267.84
2023-05-06T15:52:21.427Z,99263.72
2023-05-06T15:54:50.023Z,99260.13
2023-05-06T15:57:17.020Z,99264.50
2023-05-06T15:59:43.579Z,99264.91
2023-05-06T16:04:39.444Z,99265.47
2023-05-06T16:07:05.918Z,99260.97
2023-05-06T16:09:32.257Z,99273.84
2023-05-06T16:11:58.660Z,99275.03
2023-05-06T16:14:25.009Z,99270.84
2023-05-06T16:16:51.434Z,99266.97
2023-05-06T16:19:17.858Z,99273.16
2023-05-06T16:21:44.167Z,99262.28
2023-05-06T16:24:10.671Z,99268.47
2023-05-06T16:26:37.340Z,99270.31
2023-05-06T16:29:03.678Z,99270.47
2023-05-06T16:31:30.321Z,99267.63
2023-05-06T16:33:57.042Z,99265.13
2023-05-06T16:36:23.361Z,99266.13
2023-05-06T16:38:49.762Z,99261.97
2023-05-06T16:41:16.157Z,99256.09
2023-05-06T16:43:42.458Z,99254.78
2023-05-06T16:46:08.857Z,99260.13
2023-05-06T16:48:35.273Z,99259.63
2023-05-06T16:51:01.654Z,99257.78
2023-05-06T16:53:28.201Z,99274.19
2023-05-06T16:55:55.248Z,99261.28
2023-05-06T16:58:21.951Z,99271.16
2023-05-06T17:00:48.636Z,99270.31
2023-05-06T17:03:15.223Z,99270.25
2023-05-06T17:05:41.609Z,99265.56
2023-05-06T17:08:08.296Z,99262.53
2023-05-06T17:10:35.127Z,99266.81
2023-05-06T17:13:01.549Z,99261.75
2023-05-06T17:15:27.979Z,99266.88
2023-05-06T17:17:54.304Z,99265.41
2023-05-06T17:20:20.700Z,99263.22
2023-05-06T17:22:47.077Z,99265.31
2023-05-06T17:25:13.586Z,99276.00
2023-05-06T17:27:40.131Z,99274.78
2023-05-06T17:30:07.687Z,99270.88
2023-05-06T17:32:34.091Z,99265.38
2023-05-06T17:35:00.502Z,99269.34
2023-05-06T17:37:26.877Z,99278.53
2023-05-06T17:39:53.309Z,99270.47
2023-05-06T17:42:19.732Z,99273.56
2023-05-06T17:44:46.114Z,99281.53
2023-05-06T17:47:12.852Z,99285.97
2023-05-06T17:49:39.233Z,99275.25
2023-05-06T17:52:05.674Z,99272.50
2023-05-06T17:54:32.004Z,99271.34
2023-05-06T17:56:58.404Z,99262.75
2023-05-06T17:59:26.180Z,99259.25
2023-05-06T18:01:54.037Z,99273.88
2023-05-06T18:04:20.342Z,99279.75
2023-05-06T18:06:46.712Z,99273.97
2023-05-06T18:09:13.032Z,99273.91
2023-05-06T18:11:39.572Z,99288.50
2023-05-06T18:14:06.003Z,99294.19
2023-05-06T18:16:32.609Z,99286.41
2023-05-06T18:18:59.049Z,99294.13
2023-05-06T18:21:25.345Z,99296.50
2023-05-06T18:23:58.668Z,99303.66
2023-05-06T18:26:43.822Z,99295.97
2023-05-06T18:29:12.018Z,99306.84
2023-05-06T18:31:38.667Z,99313.38
2023-05-06T18:34:05.211Z,99311.44
2023-05-06T18:36:31.516Z,99300.53
2023-05-06T18:38:57.881Z,99298.19
2023-05-06T18:41:24.453Z,99316.72
2023-05-06T18:43:50.887Z,99312.09
2023-05-06T18:46:17.288Z,99308.63
2023-05-06T18:48:43.711Z,99320.00
2023-05-06T18:51:14.893Z,99323.09
2023-05-06T18:53:41.678Z,99332.31
2023-05-06T18:56:09.006Z,99343.22
2023-05-06T18:58:36.911Z,99341.00
2023-05-06T19:01:04.436Z,99344.22
2023-05-06T19:03:32.839Z,99340.44
2023-05-06T19:06:00.310Z,99339.47
2023-05-06T19:08:26.765Z,99337.94
2023-05-06T19:10:53.118Z,99342.84
2023-05-06T19:13:19.671Z,99351.09
2023-05-06T19:15:46.114Z,99340.06
2023-05-06T19:18:12.668Z,99346.06
2023-05-06T19:20:38.961Z,99343.38
2023-05-06T19:23:05.368Z,99347.06
2023-05-06T19:25:35.496Z,99348.03
2023-05-06T19:28:02.030Z,99354.47
2023-05-06T19:30:31.150Z,99346.44
2023-05-06T19:32:58.523Z,99360.59
2023-05-06T19:35:25.057Z,99371.22
2023-05-06T19:37:51.679Z,99367.16
2023-05-06T19:40:18.058Z,99371.50
2023-05-06T19:42:45.177Z,99386.03
2023-05-06T19:45:12.442Z,99376.50
2023-05-06T19:47:39.171Z,99389.34
2023-05-06T19:50:06.507Z,99385.97
2023-05-06T19:52:33.159Z,99392.06
2023-05-06T19:55:00.295Z,99385.16
2023-05-06T19:57:26.655Z,99383.31
2023-05-06T19:59:53.961Z,99365.91
2023-05-06T20:02:20.608Z,99391.78
2023-05-06T20:04:47.068Z,99399.34
2023-05-06T20:07:13.497Z,99401.00
2023-05-06T20:09:39.838Z,99400.47
2023-05-06T20:12:07.059Z,99406.72
2023-05-06T20:14:33.347Z,99410.38
2023-05-06T20:16:59.752Z,99414.13
2023-05-06T20:19:26.044Z,99401.44
2023-05-06T20:21:52.364Z,99386.75
2023-05-06T20:24:18.749Z,99411.66
2023-05-06T20:26:45.042Z,99410.44
2023-05-06T20:29:11.438Z,99419.41
2023-05-06T20:31:37.911Z,99417.59
2023-05-06T20:34:04.321Z,99421.16
2023-05-06T20:36:30.656Z,99415.88
2023-05-06T20:38:57.031Z,99438.22
2023-05-06T20:41:23.386Z,99427.34
2023-05-06T20:43:51.008Z,99443.31
2023-05-06T20:46:17.753Z,99428.88
2023-05-06T20:48:44.256Z,99440.00
2023-05-06T20:51:10.798Z,99443.88
2023-05-06T20:53:37.156Z,99452.41
2023-05-06T20:56:03.684Z,99447.94
2023-05-06T20:58:30.090Z,99446.31
2023-05-06T21:00:57.826Z,99457.00
2023-05-06T21:03:24.484Z,99457.13
2023-05-06T21:05:52.093Z,99460.63
2023-05-06T21:08:18.538Z,99441.88
2023-05-06T21:10:44.828Z,99445.28
2023-05-06T21:13:11.418Z,99448.19
2023-05-06T21:15:38.055Z,99453.81
2023-05-06T21:18:04.526Z,99444.22
2023-05-06T21:20:30.966Z,99453.22
2023-05-06T21:22:58.741Z,99446.78
2023-05-06T21:25:25.209Z,99450.41
2023-05-06T21:27:51.773Z,99457.00
2023-05-06T21:30:18.167Z,99453.81
2023-05-06T21:32:44.553Z,99454.59
2023-05-06T21:35:11.492Z,99461.34
2023-05-06T21:37:38.161Z,99456.16
2023-05-06T21:40:05.029Z,99469.78
2023-05-06T21:42:31.481Z,99457.72
2023-05-06T21:44:57.779Z,99462.44
2023-05-06T21:47:25.773Z,99462.44
2023-05-06T21:49:52.228Z,99464.75
2023-05-06T21:52:18.611Z,99439.19
2023-05-06T21:54:47.776Z,99443.78
2023-05-06T21:57:14.180Z,99453.66
2023-05-06T21:59:40.654Z,99475.19
2023-05-06T22:02:07.042Z,99453.63
2023-05-06T22:04:33.582Z,99474.94
2023-05-06T22:07:00.041Z,99462.25
2023-05-06T22:09:26.421Z,99482.16
2023-05-06T22:11:52.798Z,99471.53
2023-05-06T22:14:21.912Z,99476.94
2023-05-06T22:16:50.854Z,99469.41
2023-05-06T22:19:17.164Z,99494.66
2023-05-06T22:21:43.537Z,99482.00
2023-05-06T22:24:10.042Z,99480.50
2023-05-06T22:26:36.348Z,99477.66
2023-05-06T22:29:02.808Z,99488.00
2023-05-06T22:31:29.180Z,99488.84
2023-05-06T22:33:55.782Z,99484.81
2023-05-06T22:36:22.155Z,99497.47
2023-05-06T22:38:48.544Z,99495.81
2023-05-06T22:41:14.840Z,99480.28
2023-05-06T22:43:41.223Z,99480.91
2023-05-06T22:46:07.574Z,99488.56
2023-05-06T22:48:34.037Z,99486.47
2023-05-06T22:51:00.826Z,99497.94
2023-05-06T22:53:27.153Z,99492.19
2023-05-06T22:55:54.078Z,99489.91
2023-05-06T22:58:20.565Z,99484.78
2023-05-06T23:00:47.140Z,99494.38
2023-05-06T23:03:14.568Z,99497.81
2023-05-06T23:05:41.330Z,99502.53
2023-05-06T23:08:07.911Z,99495.50
2023-05-06T23:10:34.327Z,99496.34
2023-05-06T23:13:01.783Z,99499.22
2023-05-06T23:15:28.822Z,99502.44
2023-05-06T23:17:55.307Z,99498.69
2023-05-06T23:20:22.115Z,99496.69
2023-05-06T23:22:48.422Z,99489.22
2023-05-06T23:25:15.242Z,99498.53
2023-05-06T23:27:42.998Z,99507.41
2023-05-06T23:30:10.497Z,99511.56
2023-05-06T23:32:37.209Z,99506.81
2023-05-06T23:35:04.230Z,99500.81
2023-05-06T23:37:31.066Z,99491.84
2023-05-06T23:39:57.814Z,99494.59
2023-05-06T23:42:25.757Z,99490.84
2023-05-06T23:44:52.904Z,99477.13
2023-05-06T23:47:19.231Z,99485.25
2023-05-06T23:49:45.643Z,99468.66
2023-05-06T23:52:12.106Z,99488.63
2023-05-06T23:54:38.419Z,99460.28
2023-05-06T23:57:07.020Z,99485.78
2023-05-06T23:59:33.508Z,99475.97
